Time;durP1;ratioP1;P1;durP2;ratioP2;P2;SDS_P1;SDS_P2;PMS_P1;PMS_P2;Temp;Humidity;BMP_temperature;BMP_pressure;BME280_temperature;BME280_humidity;BME280_pressure;Samples;Min_cycle;Max_cycle;Signal;HPM_P1;HPM_P2
2022/04/19 00:00:54;;;;;;;9.88;6.03;;;;;;;3.11;84.80;98351.34;4485792;31;20131;-70
2022/04/19 00:03:22;;;;;;;10.27;6.68;;;;;;;3.27;83.14;98352.00;4485322;31;20115;-70
2022/04/19 00:05:49;;;;;;;13.13;7.05;;;;;;;3.21;83.13;98347.25;4485589;31;20100;-70
2022/04/19 00:08:17;;;;;;;9.55;6.03;;;;;;;3.16;83.42;98349.28;4485434;31;20520;-70
2022/04/19 00:10:44;;;;;;;10.50;6.03;;;;;;;3.31;82.83;98348.25;4485690;31;20084;-70
2022/04/19 00:13:13;;;;;;;14.13;6.68;;;;;;;3.42;81.79;98338.97;4485611;32;20107;-70
2022/04/19 00:15:41;;;;;;;11.30;6.70;;;;;;;3.31;82.09;98340.50;4485611;31;20097;-70
2022/04/19 00:18:09;;;;;;;9.43;6.18;;;;;;;3.27;82.09;98336.47;4485386;32;20100;-70
2022/04/19 00:20:38;;;;;;;10.90;6.78;;;;;;;3.28;82.05;98334.69;4485621;31;20096;-70
2022/04/19 00:23:12;;;;;;;10.10;6.53;;;;;;;3.22;81.85;98335.12;4485771;31;20088;-70
2022/04/19 00:25:41;;;;;;;10.90;6.22;;;;;;;3.15;82.68;98332.09;4485661;31;20084;-70
2022/04/19 00:28:09;;;;;;;9.52;6.00;;;;;;;3.16;82.45;98325.97;4485180;31;20080;-70
2022/04/19 00:30:37;;;;;;;11.52;6.62;;;;;;;3.19;81.94;98329.22;4485430;32;20172;-70
2022/04/19 00:33:05;;;;;;;9.25;5.82;;;;;;;3.20;82.67;98324.87;4485302;31;20116;-70
2022/04/19 00:35:33;;;;;;;10.38;6.45;;;;;;;3.24;82.72;98320.28;4485512;31;20158;-70
2022/04/19 00:38:00;;;;;;;12.07;6.37;;;;;;;3.30;82.22;98330.25;4485463;31;20442;-70
2022/04/19 00:40:28;;;;;;;9.57;6.15;;;;;;;3.28;81.94;98320.00;4485319;32;20096;-70
2022/04/19 00:42:55;;;;;;;8.70;5.62;;;;;;;3.31;81.68;98313.78;4485368;31;20098;-70
2022/04/19 00:45:23;;;;;;;9.25;5.90;;;;;;;3.33;80.92;98311.91;4484038;32;20096;-70
2022/04/19 00:47:52;;;;;;;10.95;5.30;;;;;;;3.34;80.70;98304.03;4485600;32;20149;-70
2022/04/19 00:50:19;;;;;;;10.30;5.43;;;;;;;3.38;81.22;98309.87;4485459;32;20108;-70
2022/04/19 00:52:48;;;;;;;12.00;5.78;;;;;;;3.35;82.62;98303.13;4485257;31;20088;-70
2022/04/19 00:55:15;;;;;;;9.48;5.80;;;;;;;3.46;82.10;98306.75;4483838;32;20579;-70
2022/04/19 00:57:45;;;;;;;12.63;6.55;;;;;;;3.61;80.44;98308.31;4485728;31;20161;-70
2022/04/19 01:00:14;;;;;;;9.05;5.70;;;;;;;3.68;79.95;98304.38;4485140;31;20092;-70
2022/04/19 01:02:42;;;;;;;8.73;5.62;;;;;;;3.69;80.03;98294.81;4485253;31;20092;-70
2022/04/19 01:05:10;;;;;;;9.02;5.22;;;;;;;3.73;79.70;98291.91;4485157;31;20124;-70
2022/04/19 01:07:38;;;;;;;7.47;4.62;;;;;;;3.73;79.65;98291.91;4485340;31;20176;-70
2022/04/19 01:10:07;;;;;;;11.95;5.57;;;;;;;3.72;78.89;98295.47;4484450;31;20104;-70
2022/04/19 01:15:21;;;;;;;9.70;5.95;;;;;;;3.77;78.09;98291.69;4485408;31;20476;-70
2022/04/19 01:17:52;;;;;;;8.80;5.10;;;;;;;3.80;78.14;98284.56;4485612;31;20104;-70
2022/04/19 01:20:19;;;;;;;8.65;5.40;;;;;;;3.82;77.95;98287.03;4483945;32;20533;-70
2022/04/19 01:22:49;;;;;;;8.93;5.15;;;;;;;3.83;78.59;98284.34;4484953;31;20088;-70
2022/04/19 01:25:18;;;;;;;8.10;5.70;;;;;;;3.84;79.54;98293.75;4485229;31;20502;-70
2022/04/19 01:27:47;;;;;;;7.30;5.03;;;;;;;3.86;80.12;98280.69;4485413;31;20095;-70
2022/04/19 01:30:15;;;;;;;8.07;5.28;;;;;;;3.83;81.07;98284.34;4484912;31;20115;-70
2022/04/19 01:32:43;;;;;;;10.50;6.03;;;;;;;3.83;81.36;98276.56;4484886;31;20141;-70
2022/04/19 01:35:14;;;;;;;11.43;6.70;;;;;;;4.07;79.46;98274.03;4485068;31;20436;-70
2022/04/19 01:37:48;;;;;;;15.53;6.67;;;;;;;4.01;79.08;98271.03;4485553;31;20126;-70
2022/04/19 01:40:19;;;;;;;14.65;7.65;;;;;;;4.01;79.25;98271.03;4485016;31;20152;-70
2022/04/19 01:42:53;;;;;;;13.62;7.10;;;;;;;4.03;79.20;98267.41;4485328;31;20081;-70
2022/04/19 01:45:23;;;;;;;15.50;7.97;;;;;;;4.20;78.63;98270.56;4483807;32;20100;-70
2022/04/19 01:47:54;;;;;;;17.77;8.23;;;;;;;3.99;79.62;98260.75;4485335;31;20114;-70
2022/04/19 01:50:22;;;;;;;18.62;7.70;;;;;;;4.01;79.24;98260.66;4484967;31;20437;-70
2022/04/19 01:52:49;;;;;;;17.33;7.28;;;;;;;4.08;78.99;98261.88;4485020;31;20092;-70
2022/04/19 01:55:18;;;;;;;15.65;7.57;;;;;;;4.06;79.47;98262.00;4484908;31;20112;-70
2022/04/19 01:57:57;;;;;;;10.68;6.50;;;;;;;4.14;79.29;98263.22;4485043;31;20187;-70
2022/04/19 02:00:28;;;;;;;13.15;6.25;;;;;;;4.12;79.40;98259.91;4483680;32;20084;-70
2022/04/19 02:02:57;;;;;;;13.30;7.12;;;;;;;4.01;79.81;98258.91;4484353;32;20107;-70
2022/04/19 02:05:24;;;;;;;11.65;6.30;;;;;;;3.97;80.18;98251.47;4484764;31;20105;-70
2022/04/19 02:07:52;;;;;;;11.07;5.87;;;;;;;3.96;80.41;98255.81;4484684;31;20104;-70
2022/04/19 02:10:20;;;;;;;11.85;6.03;;;;;;;3.95;80.54;98246.38;4484760;31;20163;-70
2022/04/19 02:12:49;;;;;;;8.23;5.40;;;;;;;3.85;80.57;98242.78;4484753;31;20100;-70
2022/04/19 02:15:20;;;;;;;10.63;6.05;;;;;;;3.85;80.76;98242.78;4484501;31;20108;-70
2022/04/19 02:17:50;;;;;;;11.23;6.30;;;;;;;3.78;81.61;98244.12;4484686;31;20524;-70
2022/04/19 02:20:18;;;;;;;10.88;5.18;;;;;;;3.73;81.75;98239.28;4484760;32;20130;-70
2022/04/19 02:22:46;;;;;;;10.02;5.80;;;;;;;3.69;81.87;98243.84;4486388;31;20149;-70
2022/04/19 02:25:16;;;;;;;8.82;5.18;;;;;;;3.71;81.56;98241.97;4486120;31;20123;-70
2022/04/19 02:27:44;;;;;;;9.20;5.40;;;;;;;3.71;81.41;98236.81;4486653;31;20103;-70
2022/04/19 02:30:14;;;;;;;8.43;5.45;;;;;;;3.60;81.71;98239.28;4486442;31;20088;-70
2022/04/19 02:32:50;;;;;;;10.65;5.75;;;;;;;3.58;81.45;98240.34;4486385;31;20088;-70
2022/04/19 02:35:20;;;;;;;9.00;5.18;;;;;;;3.58;80.82;98240.34;4486558;31;20153;-70
2022/04/19 02:37:49;;;;;;;10.07;5.57;;;;;;;3.40;81.45;98238.09;4486396;32;20157;-70
2022/04/19 02:40:22;;;;;;;9.43;5.57;;;;;;;3.29;81.94;98233.63;4486183;31;20096;-70
2022/04/19 02:42:52;;;;;;;9.05;5.47;;;;;;;3.18;82.58;98230.97;4486551;31;20080;-70
2022/04/19 02:45:22;;;;;;;9.20;5.40;;;;;;;3.07;83.59;98233.44;4486248;31;20093;-70
2022/04/19 02:48:07;;;;;;;8.88;5.43;;;;;;;2.97;84.34;98235.81;4486267;32;20111;-70
2022/04/19 02:50:40;;;;;;;11.20;6.07;;;;;;;2.88;84.74;98234.66;4486450;31;20824;-70
2022/04/19 02:53:08;;;;;;;11.73;5.75;;;;;;;2.78;85.50;98237.00;4486303;31;20344;-70
2022/04/19 02:55:36;;;;;;;7.80;5.60;;;;;;;2.66;86.49;98238.69;4486275;31;20448;-70
2022/04/19 02:58:03;;;;;;;10.98;5.40;;;;;;;2.59;86.69;98240.00;4486478;31;20184;-70
2022/04/19 03:00:31;;;;;;;11.80;5.85;;;;;;;2.43;88.58;98234.16;4486369;31;20103;-70
2022/04/19 03:02:58;;;;;;;15.48;5.95;;;;;;;2.37;89.31;98237.12;4485756;31;20156;-70
2022/04/19 03:05:26;;;;;;;10.65;5.35;;;;;;;2.20;90.16;98241.63;4485971;31;20096;-70
2022/04/19 03:07:53;;;;;;;9.85;6.20;;;;;;;2.18;90.10;98243.50;4486142;32;20093;-70
2022/04/19 03:10:21;;;;;;;11.35;5.55;;;;;;;2.20;89.25;98240.81;4486044;31;20092;-70
2022/04/19 03:12:51;;;;;;;13.30;6.60;;;;;;;2.00;89.17;98239.47;4486225;31;20514;-70
2022/04/19 03:15:20;;;;;;;11.23;6.50;;;;;;;1.73;90.26;98241.09;4486332;31;20180;-70
2022/04/19 03:17:48;;;;;;;12.18;6.70;;;;;;;1.65;90.58;98245.06;4486187;31;20116;-70
2022/04/19 03:20:16;;;;;;;10.23;6.22;;;;;;;1.56;91.16;98244.72;4486173;31;20160;-69
2022/04/19 03:28:17;;;;;;;11.90;6.07;;;;;;;1.53;91.76;98238.88;4486080;31;20114;-70
2022/04/19 03:30:44;;;;;;;11.05;5.70;;;;;;;1.49;91.87;98242.59;4486043;31;20501;-70
2022/04/19 03:33:12;;;;;;;11.35;6.43;;;;;;;1.45;92.32;98236.78;4485331;31;20142;-70
2022/04/19 03:35:40;;;;;;;12.98;7.35;;;;;;;1.39;92.56;98235.41;4485894;32;20217;-70
2022/04/19 03:38:10;;;;;;;10.57;6.20;;;;;;;1.32;93.10;98239.28;4485883;31;20149;-69
2022/04/19 03:40:37;;;;;;;12.88;6.18;;;;;;;1.28;93.43;98242.97;4485897;32;20088;-70
2022/04/19 03:43:07;;;;;;;16.20;6.60;;;;;;;1.23;94.47;98238.06;4485987;32;20119;-70
2022/04/19 03:45:34;;;;;;;11.70;7.00;;;;;;;1.21;94.95;98233.91;4486011;31;20157;-70
2022/04/19 03:48:05;;;;;;;14.95;6.28;;;;;;;1.28;94.58;98242.13;4485853;32;20592;-70
2022/04/19 03:50:33;;;;;;;11.50;6.68;;;;;;;1.23;94.97;98232.91;4485742;31;20084;-70
2022/04/19 03:53:00;;;;;;;11.98;5.93;;;;;;;1.22;95.62;98233.00;4486070;31;20494;-70
2022/04/19 03:55:27;;;;;;;11.43;6.40;;;;;;;1.16;95.05;98236.78;4485532;31;20184;-70
2022/04/19 03:57:55;;;;;;;9.32;6.05;;;;;;;1.16;94.79;98226.44;4486099;31;20156;-70
2022/04/19 04:00:23;;;;;;;11.75;6.75;;;;;;;1.08;95.00;98231.25;4485642;31;20084;-70
2022/04/19 04:02:51;;;;;;;15.07;6.85;;;;;;;1.08;94.79;98225.28;4485681;32;20101;-70
2022/04/19 04:05:18;;;;;;;10.88;5.80;;;;;;;1.07;94.55;98234.75;4485679;31;20112;-70
2022/04/19 04:07:46;;;;;;;14.60;6.32;;;;;;;1.12;94.28;98231.88;4485699;31;20088;-70
2022/04/19 04:10:14;;;;;;;12.63;6.50;;;;;;;1.14;94.08;98225.72;4485793;31;20148;-70
2022/04/19 04:12:42;;;;;;;11.18;6.12;;;;;;;1.08;94.81;98233.00;4485635;31;20088;-70
2022/04/19 04:15:10;;;;;;;13.38;6.50;;;;;;;1.13;94.56;98231.78;4486024;31;20108;-70
2022/04/19 04:17:37;;;;;;;11.77;6.37;;;;;;;1.15;94.62;98234.28;4485499;32;20101;-69
2022/04/19 04:20:05;;;;;;;13.62;6.37;;;;;;;1.21;94.52;98227.03;4485871;31;20429;-70
2022/04/19 04:22:32;;;;;;;10.57;6.18;;;;;;;1.24;94.60;98234.59;4485568;31;20498;-70
2022/04/19 04:25:00;;;;;;;11.88;6.32;;;;;;;1.26;94.75;98233.63;4485881;31;20112;-70
2022/04/19 04:27:28;;;;;;;12.73;6.72;;;;;;;1.32;94.77;98238.47;4485598;31;20163;-69
2022/04/19 04:29:55;;;;;;;12.02;6.57;;;;;;;1.44;94.27;98231.72;4485718;31;20105;-70
2022/04/19 04:32:23;;;;;;;13.05;6.53;;;;;;;1.50;93.51;98236.50;4485369;31;20100;-69
2022/04/19 04:34:50;;;;;;;14.63;6.45;;;;;;;1.51;93.71;98233.00;4485775;31;20104;-69
2022/04/19 04:37:17;;;;;;;10.68;6.05;;;;;;;1.70;93.17;98225.78;4485302;32;20088;-70
2022/04/19 04:39:45;;;;;;;9.25;6.07;;;;;;;1.87;92.50;98229.91;4485792;31;20089;-69
2022/04/19 04:42:14;;;;;;;12.18;6.12;;;;;;;1.93;92.13;98232.09;4485269;31;20092;-70
2022/04/19 04:44:43;;;;;;;9.05;5.45;;;;;;;1.97;91.96;98237.91;4484495;31;20473;-70
2022/04/19 04:50:01;;;;;;;13.52;5.82;;;;;;;2.19;90.83;98231.38;4485590;31;20431;-70
2022/04/19 04:52:28;;;;;;;9.30;5.87;;;;;;;2.25;90.59;98229.22;4485517;31;20095;-70
2022/04/19 04:54:56;;;;;;;14.77;6.20;;;;;;;2.33;90.13;98233.91;4485702;31;20160;-70
2022/04/19 04:57:23;;;;;;;9.90;6.20;;;;;;;2.40;89.91;98242.13;4485367;31;20135;-70
2022/04/19 04:59:51;;;;;;;13.23;6.05;;;;;;;2.51;89.54;98238.84;4485210;31;20092;-69
2022/04/19 05:02:18;;;;;;;20.52;6.25;;;;;;;2.69;88.78;98240.22;4484098;32;20465;-69
2022/04/19 05:04:45;;;;;;;16.73;7.32;;;;;;;2.83;88.00;98239.31;4484690;31;20092;-68
2022/04/19 05:07:15;;;;;;;9.30;5.93;;;;;;;3.08;87.41;98241.09;4484940;31;20485;-69
2022/04/19 05:09:42;;;;;;;9.70;6.00;;;;;;;3.22;86.92;98236.75;4474825;31;20473;-70
2022/04/19 05:12:10;;;;;;;10.52;5.70;;;;;;;3.49;85.61;98231.44;4474078;32;20115;-70
2022/04/19 05:14:38;;;;;;;14.27;5.78;;;;;;;3.71;84.66;98234.22;4481760;31;20160;-69
2022/04/19 05:17:06;;;;;;;8.77;5.97;;;;;;;3.85;84.01;98235.00;4481744;32;20100;-70
2022/04/19 05:19:33;;;;;;;14.30;5.70;;;;;;;3.85;84.67;98237.59;4475833;32;20088;-70
2022/04/19 05:22:01;;;;;;;12.05;5.32;;;;;;;3.83;84.50;98237.72;4485173;31;20142;-70
2022/04/19 05:24:29;;;;;;;12.98;5.80;;;;;;;3.89;84.17;98237.28;4485206;32;20104;-70
2022/04/19 05:26:56;;;;;;;10.07;5.35;;;;;;;3.95;83.93;98238.63;4483868;32;20093;-70
2022/04/19 05:29:24;;;;;;;12.55;5.87;;;;;;;4.08;83.12;98243.75;4482294;31;20100;-70
2022/04/19 05:31:51;;;;;;;18.12;6.07;;;;;;;4.17;81.98;98237.09;4474640;31;20478;-70
2022/04/19 05:34:18;;;;;;;13.05;5.80;;;;;;;4.18;81.53;98238.72;4482981;32;20112;-70
2022/04/19 05:36:46;;;;;;;8.48;5.53;;;;;;;4.29;80.91;98249.16;4473541;32;20169;-70
2022/04/19 05:39:13;;;;;;;18.12;8.00;;;;;;;4.23;80.50;98241.81;4482740;32;20144;-70
2022/04/19 05:41:41;;;;;;;12.10;7.60;;;;;;;4.31;80.93;98244.69;4481648;31;20100;-70
2022/04/19 05:44:09;;;;;;;13.77;6.30;;;;;;;4.55;80.72;98241.25;4483425;31;20123;-70
2022/04/19 05:46:36;;;;;;;9.27;6.15;;;;;;;4.68;78.60;98241.16;4485133;31;20096;-70
2022/04/19 05:49:06;;;;;;;10.13;5.50;;;;;;;4.89;78.17;98243.94;4485170;31;20160;-70
2022/04/19 05:51:34;;;;;;;8.23;4.82;;;;;;;5.12;76.91;98247.44;4480393;31;20092;-70
2022/04/19 05:54:02;;;;;;;12.25;5.95;;;;;;;5.28;76.65;98244.50;4468727;32;20742;-70
2022/04/19 05:56:30;;;;;;;10.98;5.72;;;;;;;5.23;77.08;98238.84;4478142;32;20097;-70
2022/04/19 05:58:58;;;;;;;11.02;6.20;;;;;;;5.31;77.11;98244.25;4483208;31;20097;-70
2022/04/19 06:04:51;;;;;;;13.90;5.55;;;;;;;5.55;76.86;98245.94;4484787;32;20152;-69
2022/04/19 06:06:59;;;;;;;12.30;5.43;;;;;;;6.21;74.99;98249.41;4484384;32;20135;-70
2022/04/19 06:09:26;;;;;;;12.73;6.78;;;;;;;6.56;73.16;98243.16;4484658;31;20541;-70
2022/04/19 06:11:53;;;;;;;10.48;6.25;;;;;;;6.61;71.58;98241.97;4484649;32;20123;-70
2022/04/19 06:14:21;;;;;;;14.10;7.75;;;;;;;6.61;71.46;98234.97;4470546;32;20113;-70
2022/04/19 06:16:48;;;;;;;8.15;5.37;;;;;;;6.80;71.29;98244.72;4469567;32;20088;-70
2022/04/19 06:19:16;;;;;;;8.05;5.70;;;;;;;6.89;70.37;98243.13;4483938;32;20100;-70
2022/04/19 06:21:45;;;;;;;12.45;6.10;;;;;;;6.92;69.07;98240.28;4484017;32;20112;-70
2022/04/19 06:24:12;;;;;;;9.20;6.40;;;;;;;7.07;69.76;98243.34;4482799;31;20127;-70
2022/04/19 06:26:39;;;;;;;8.82;5.80;;;;;;;7.32;67.83;98238.72;4483948;32;20119;-70
2022/04/19 06:29:07;;;;;;;7.95;6.60;;;;;;;7.19;67.75;98238.91;4473972;32;20161;-70
2022/04/19 06:31:35;;;;;;;9.25;5.55;;;;;;;7.31;67.71;98239.66;4473335;32;20096;-70
2022/04/19 06:34:03;;;;;;;10.35;5.37;;;;;;;7.49;67.45;98234.69;4472243;32;20101;-70
2022/04/19 06:36:31;;;;;;;10.60;6.12;;;;;;;7.63;67.10;98237.75;4483263;32;20101;-70
2022/04/19 06:38:58;;;;;;;11.30;6.15;;;;;;;7.79;67.27;98232.03;4483344;31;20112;-70
2022/04/19 06:41:26;;;;;;;12.00;6.15;;;;;;;7.67;66.19;98240.09;4484018;31;20120;-70
2022/04/19 06:43:57;;;;;;;11.10;6.37;;;;;;;7.94;67.85;98236.88;4483432;31;20096;-70
2022/04/19 06:46:26;;;;;;;12.27;6.30;;;;;;;7.96;65.99;98233.19;4466242;32;20096;-70
2022/04/19 06:48:58;;;;;;;11.18;5.80;;;;;;;7.73;66.93;98242.19;4478662;31;20085;-70
2022/04/19 06:51:26;;;;;;;11.25;5.93;;;;;;;7.69;66.09;98244.25;4468524;32;20164;-70
2022/04/19 06:53:59;;;;;;;8.93;5.23;;;;;;;7.83;65.57;98243.03;4483633;32;20545;-70
2022/04/19 06:56:27;;;;;;;10.77;5.40;;;;;;;7.73;65.17;98236.97;4483974;31;20093;-70
2022/04/19 06:58:56;;;;;;;9.35;6.68;;;;;;;7.64;65.15;98242.03;4482970;32;20141;-70
2022/04/19 07:01:23;;;;;;;9.52;5.65;;;;;;;7.56;65.46;98236.62;4481553;31;20093;-70
2022/04/19 07:03:53;;;;;;;10.63;5.22;;;;;;;7.83;67.40;98222.19;4481312;31;20115;-70
2022/04/19 07:06:22;;;;;;;9.88;6.37;;;;;;;8.14;67.04;98230.75;4481850;32;20120;-70
2022/04/19 07:08:49;;;;;;;8.15;5.87;;;;;;;8.13;66.18;98234.31;4484264;31;20112;-70
2022/04/19 07:11:17;;;;;;;7.90;5.62;;;;;;;8.31;66.09;98234.50;4471925;31;20764;-70
2022/04/19 07:13:44;;;;;;;10.32;6.55;;;;;;;8.35;64.66;98237.62;4467484;32;20108;-70
2022/04/19 07:16:12;;;;;;;11.20;6.68;;;;;;;8.61;65.37;98237.12;4469205;32;20093;-70
2022/04/19 07:18:39;;;;;;;8.40;5.28;;;;;;;8.97;63.69;98245.22;4469033;32;20796;-70
2022/04/19 07:26:45;;;;;;;7.82;5.37;;;;;;;9.04;63.18;98239.28;4470414;32;20722;-70
2022/04/19 07:29:15;;;;;;;7.65;5.20;;;;;;;9.39;60.74;98237.81;4469668;32;20092;-70
2022/04/19 07:31:43;;;;;;;9.55;5.20;;;;;;;9.55;59.10;98232.00;4482611;32;20100;-70
2022/04/19 07:34:13;;;;;;;9.38;6.35;;;;;;;9.85;60.93;98232.69;4482594;32;20101;-70
2022/04/19 07:36:41;;;;;;;7.62;5.70;;;;;;;9.93;59.16;98229.31;4484923;31;20560;-70
2022/04/19 07:39:10;;;;;;;9.32;5.90;;;;;;;10.06;58.45;98239.47;4484908;31;20156;-70
2022/04/19 07:41:38;;;;;;;8.65;5.82;;;;;;;9.56;57.18;98235.44;4485350;31;20141;-70
2022/04/19 07:44:08;;;;;;;10.25;5.62;;;;;;;9.32;56.75;98228.91;4481855;32;20130;-70
2022/04/19 07:46:35;;;;;;;9.05;5.55;;;;;;;9.43;59.41;98225.28;4485365;32;20096;-70
2022/04/19 07:49:03;;;;;;;8.98;5.47;;;;;;;9.30;55.98;98233.47;4483690;31;20084;-70
2022/04/19 07:51:31;;;;;;;8.50;5.40;;;;;;;9.13;56.52;98232.41;4484878;31;22242;-70
2022/04/19 07:53:58;;;;;;;10.50;5.72;;;;;;;9.39;56.17;98232.59;4479570;32;20109;-70
2022/04/19 07:56:26;;;;;;;9.32;5.45;;;;;;;9.69;58.50;98222.84;4481337;32;20168;-71
2022/04/19 07:58:53;;;;;;;8.68;5.72;;;;;;;10.01;56.82;98224.19;4484076;32;20958;-70
2022/04/19 08:01:21;;;;;;;8.80;5.30;;;;;;;10.21;57.43;98231.94;4485267;31;20096;-70
2022/04/19 08:03:48;;;;;;;8.30;5.93;;;;;;;9.99;54.39;98228.75;4484791;32;20597;-70
2022/04/19 08:06:15;;;;;;;7.82;5.28;;;;;;;9.65;52.66;98236.38;4482389;31;20113;-70
2022/04/19 08:08:43;;;;;;;7.75;5.68;;;;;;;9.67;53.88;98229.19;4485023;31;20096;-71
2022/04/19 08:11:11;;;;;;;11.98;5.70;;;;;;;10.08;53.49;98233.13;4484971;31;20151;-70
2022/04/19 08:13:38;;;;;;;12.75;5.15;;;;;;;10.77;55.24;98237.88;4483908;31;20113;-70
2022/04/19 08:16:06;;;;;;;9.95;5.57;;;;;;;10.95;54.54;98232.63;4484565;31;20120;-70
2022/04/19 08:18:33;;;;;;;9.10;4.95;;;;;;;11.38;51.56;98233.53;4484382;31;20772;-70
2022/04/19 08:21:00;;;;;;;7.82;5.05;;;;;;;11.46;49.35;98233.59;4485900;31;20172;-70
2022/04/19 08:23:27;;;;;;;8.30;5.47;;;;;;;11.49;47.91;98229.81;4485911;31;20092;-70
2022/04/19 08:25:58;;;;;;;6.12;4.65;;;;;;;11.56;50.38;98222.97;4485629;31;20148;-70
2022/04/19 08:28:26;;;;;;;9.93;5.97;;;;;;;11.78;49.64;98226.84;4475784;31;20089;-70
2022/04/19 08:30:53;;;;;;;10.18;5.37;;;;;;;11.81;48.09;98231.78;4478407;32;20478;-70
2022/04/19 08:33:21;;;;;;;10.27;5.47;;;;;;;11.85;46.62;98227.03;4469493;32;20170;-70
2022/04/19 08:35:48;;;;;;;8.70;5.03;;;;;;;11.46;47.21;98227.50;4473193;32;20116;-70
2022/04/19 08:38:16;;;;;;;7.03;4.90;;;;;;;11.73;46.69;98226.47;4482517;32;20445;-70
2022/04/19 08:40:43;;;;;;;7.93;5.10;;;;;;;11.98;45.74;98221.38;4485087;32;20123;-70
2022/04/19 08:43:11;;;;;;;9.10;5.12;;;;;;;11.95;47.62;98213.81;4485474;31;20096;-70
2022/04/19 08:45:38;;;;;;;7.95;4.55;;;;;;;12.11;47.87;98213.84;4484476;32;20461;-70
2022/04/19 08:48:09;;;;;;;10.82;5.20;;;;;;;12.20;44.35;98217.31;4480759;32;20119;-70
2022/04/19 08:50:38;;;;;;;9.77;4.75;;;;;;;11.85;47.71;98214.75;4484966;31;20529;-70
2022/04/19 08:58:39;;;;;;;7.62;4.90;;;;;;;12.51;46.46;98207.00;4485385;31;20081;-70
2022/04/19 09:01:06;;;;;;;9.25;5.03;;;;;;;12.23;43.65;98204.69;4485417;31;20120;-70
2022/04/19 09:03:34;;;;;;;8.40;4.85;;;;;;;12.59;43.64;98208.81;4474056;31;20089;-70
2022/04/19 09:06:03;;;;;;;8.45;5.32;;;;;;;12.82;47.23;98203.72;4485102;31;20092;-70
2022/04/19 09:08:31;;;;;;;8.00;5.57;;;;;;;12.31;41.58;98203.03;4485310;31;20112;-70
2022/04/19 09:11:08;;;;;;;7.90;5.00;;;;;;;11.78;42.41;98207.63;4483854;31;20103;-70
2022/04/19 09:13:36;;;;;;;6.62;5.37;;;;;;;12.02;42.12;98204.28;4484724;32;20171;-70
2022/04/19 09:16:07;;;;;;;8.85;5.35;;;;;;;12.28;41.30;98203.38;4483654;31;20410;-70
2022/04/19 09:18:35;;;;;;;6.80;4.72;;;;;;;12.68;42.34;98207.03;4483559;31;20469;-70
2022/04/19 09:21:04;;;;;;;6.37;4.55;;;;;;;12.25;45.31;98204.53;4483615;31;20167;-70
2022/04/19 09:23:33;;;;;;;6.87;4.60;;;;;;;12.78;44.26;98203.25;4484132;31;20105;-70
2022/04/19 09:26:04;;;;;;;10.68;4.70;;;;;;;12.82;42.51;98206.34;4485170;31;20108;-70
2022/04/19 09:28:34;;;;;;;7.35;4.45;;;;;;;13.34;41.79;98201.69;4482549;32;20088;-70
2022/04/19 09:31:02;;;;;;;8.27;4.80;;;;;;;12.80;40.62;98205.69;4483878;31;20114;-70
2022/04/19 09:33:30;;;;;;;8.00;4.75;;;;;;;12.80;41.66;98205.69;4483361;32;20865;-69
2022/04/19 09:36:02;;;;;;;11.12;4.65;;;;;;;12.45;41.20;98198.97;4483867;32;20105;-70
2022/04/19 09:38:41;;;;;;;12.75;4.62;;;;;;;12.98;42.90;98197.63;4484896;31;20080;-70
2022/04/19 09:41:10;;;;;;;6.68;4.87;;;;;;;12.80;42.35;98195.19;4483434;31;20076;-70
2022/04/19 09:44:08;;;;;;;;;;;;;;;12.45;43.53;98197.16;4478940;31;20100;-70
2022/04/19 09:46:36;;;;;;;6.62;4.55;;;;;;;12.64;42.36;98203.88;4485155;31;19980;-70
2022/04/19 09:49:07;;;;;;;13.82;5.10;;;;;;;12.93;43.05;98199.94;4484994;31;20165;-70
2022/04/19 09:51:35;;;;;;;16.05;5.10;;;;;;;12.30;42.05;98196.16;4481765;32;20088;-70
2022/04/19 09:54:03;;;;;;;8.90;4.78;;;;;;;11.99;42.25;98199.38;4483161;32;20168;-70
2022/04/19 09:56:36;;;;;;;9.75;4.90;;;;;;;11.86;44.56;98199.81;4477951;32;20604;-70
2022/04/19 09:59:23;;;;;;;9.50;4.90;;;;;;;11.59;43.37;98196.41;4484111;31;20112;-70
2022/04/19 10:10:09;;;;;;;10.43;4.80;;;;;;;11.84;44.38;98192.09;4479080;32;20537;-69
2022/04/19 10:12:36;;;;;;;7.68;5.12;;;;;;;12.03;42.34;98196.25;4482824;32;20088;-70
2022/04/19 10:15:06;;;;;;;7.00;4.90;;;;;;;11.85;43.70;98191.12;4478589;31;20134;-69
2022/04/19 10:17:36;;;;;;;6.80;4.85;;;;;;;12.31;41.90;98195.16;4484272;32;20080;-70
2022/04/19 10:20:04;;;;;;;11.12;4.70;;;;;;;12.69;40.42;98192.91;4483379;31;20371;-70
2022/04/19 10:22:32;;;;;;;7.82;4.65;;;;;;;12.63;40.50;98196.16;4483104;32;20108;-70
2022/04/19 10:25:02;;;;;;;6.57;5.18;;;;;;;12.70;38.98;98191.91;4482024;32;20472;-70
2022/04/19 10:27:31;;;;;;;6.40;4.80;;;;;;;12.90;39.84;98192.38;4482693;32;21403;-70
2022/04/19 10:29:58;;;;;;;6.93;5.10;;;;;;;12.96;39.48;98192.53;4483922;31;20160;-70
2022/04/19 10:32:33;;;;;;;6.78;5.05;;;;;;;12.76;40.57;98184.19;4480893;32;20115;-70
2022/04/19 10:35:03;;;;;;;6.30;4.57;;;;;;;12.70;41.54;98189.28;4481802;31;20107;-70
2022/04/19 10:37:32;;;;;;;8.05;4.75;;;;;;;12.52;39.58;98184.19;4481746;31;20566;-70
2022/04/19 10:39:59;;;;;;;8.57;5.50;;;;;;;12.88;38.54;98182.03;4481883;31;20100;-70
2022/04/19 10:42:40;;;;;;;7.50;4.47;;;;;;;12.11;38.73;98178.87;4483163;31;20101;-70
2022/04/19 10:45:13;;;;;;;9.48;4.95;;;;;;;12.56;39.38;98183.69;4484020;32;20155;-70
2022/04/19 10:47:53;;;;;;;6.70;4.53;;;;;;;12.28;38.09;98187.59;4484289;31;20532;-70
2022/04/19 10:50:29;;;;;;;6.57;4.60;;;;;;;12.20;37.35;98178.75;4485685;31;20088;-70
2022/04/19 10:53:03;;;;;;;9.45;4.97;;;;;;;12.07;37.93;98183.66;4486244;31;20423;-70
2022/04/19 10:55:34;;;;;;;7.30;4.90;;;;;;;12.04;37.35;98176.09;4486148;32;20157;-70
2022/04/19 11:00:34;;;;;;;7.50;4.60;;;;;;;11.82;39.54;98185.34;4486114;31;20517;-70
2022/04/19 11:03:33;;;;;;;5.03;4.25;;;;;;;11.15;41.16;98186.84;4485772;31;20542;-70
2022/04/19 11:06:03;;;;;;;7.12;4.93;;;;;;;10.68;43.30;98187.22;4486062;31;20566;-70
2022/04/19 11:08:31;;;;;;;6.62;4.90;;;;;;;10.04;45.21;98191.69;4485860;31;20119;-70
2022/04/19 11:11:01;;;;;;;7.05;5.25;;;;;;;9.99;45.37;98189.50;4485948;31;20089;-70
2022/04/19 11:13:31;;;;;;;10.10;4.75;;;;;;;9.93;46.27;98193.53;4486387;31;20104;-70
2022/04/19 11:15:59;;;;;;;7.43;4.70;;;;;;;9.86;46.20;98191.66;4486026;31;20096;-70
2022/04/19 11:18:30;;;;;;;8.13;4.90;;;;;;;9.38;47.70;98201.38;4485925;31;20096;-70
2022/04/19 11:20:59;;;;;;;6.35;5.12;;;;;;;9.08;49.01;98194.59;4485954;31;20088;-70
2022/04/19 11:23:27;;;;;;;9.75;5.37;;;;;;;9.16;49.87;98194.69;4485991;31;20111;-70
2022/04/19 11:25:54;;;;;;;7.60;5.28;;;;;;;8.73;50.38;98204.69;4484700;32;20107;-70
2022/04/19 11:28:26;;;;;;;13.38;6.30;;;;;;;8.56;52.57;98206.22;4485822;31;20135;-70
2022/04/19 11:30:55;;;;;;;9.63;5.93;;;;;;;8.37;55.90;98209.59;4485869;31;20509;-70
2022/04/19 11:33:29;;;;;;;11.75;5.70;;;;;;;7.96;58.68;98204.50;4485561;31;20119;-70
2022/04/19 11:36:03;;;;;;;8.65;6.15;;;;;;;7.73;59.17;98200.47;4486008;31;20107;-70
2022/04/19 11:38:33;;;;;;;8.27;6.00;;;;;;;7.53;61.31;98203.00;4485852;32;20096;-70
2022/04/19 11:46:44;;;;;;;9.52;6.37;;;;;;;7.93;62.59;98215.22;4485930;31;20139;-70
2022/04/19 11:49:20;;;;;;;14.52;6.60;;;;;;;8.01;62.83;98219.75;4485743;32;20100;-70
2022/04/19 11:51:52;;;;;;;12.23;6.78;;;;;;;8.41;62.23;98224.03;4485651;31;20076;-70
2022/04/19 11:54:28;;;;;;;12.32;6.00;;;;;;;8.75;61.14;98218.44;4485321;32;20519;-70
2022/04/19 11:57:06;;;;;;;8.27;5.60;;;;;;;8.97;57.78;98224.31;4485574;31;20549;-70
2022/04/19 11:59:44;;;;;;;9.10;6.18;;;;;;;9.13;56.79;98228.94;4485805;31;20115;-70
2022/04/19 12:02:17;;;;;;;8.20;5.95;;;;;;;9.14;57.59;98222.78;4485577;31;20107;-70
2022/04/19 12:04:56;;;;;;;9.65;5.90;;;;;;;9.61;55.16;98216.69;4485647;31;20130;-70
2022/04/19 12:07:25;;;;;;;8.40;5.72;;;;;;;9.58;55.31;98218.63;4485656;31;20084;-70
2022/04/19 12:09:53;;;;;;;7.85;5.70;;;;;;;9.50;54.66;98217.72;4485859;31;20108;-70
2022/04/19 12:12:20;;;;;;;8.32;5.28;;;;;;;9.32;55.09;98221.06;4485549;31;20084;-70
2022/04/19 12:14:52;;;;;;;7.60;6.07;;;;;;;9.31;54.79;98229.03;4485602;31;20108;-70
2022/04/19 12:17:23;;;;;;;9.23;5.90;;;;;;;9.36;53.70;98230.28;4485726;31;20157;-70
2022/04/19 12:20:00;;;;;;;7.78;5.72;;;;;;;9.20;53.54;98235.28;4485456;31;20159;-70
2022/04/19 12:22:27;;;;;;;7.75;5.40;;;;;;;9.22;53.27;98226.31;4485705;31;20073;-70
2022/04/19 12:24:58;;;;;;;9.45;5.35;;;;;;;9.12;53.85;98235.16;4485879;31;20105;-70
2022/04/19 12:27:35;;;;;;;7.85;5.22;;;;;;;9.70;53.08;98224.47;4485534;31;20112;-70